createdAt,value
2023-07-24T00:00:29.998Z,100764.66
2023-07-24T00:02:57.949Z,100766.00
2023-07-24T00:05:24.906Z,100766.60
2023-07-24T00:07:51.978Z,100770.75
2023-07-24T00:10:18.824Z,100766.73
2023-07-24T00:12:45.660Z,100765.40
2023-07-24T00:15:12.419Z,100764.33
2023-07-24T00:17:39.278Z,100761.63
2023-07-24T00:20:07.641Z,100755.36
2023-07-24T00:22:34.366Z,100754.60
2023-07-24T00:25:01.076Z,100753.58
2023-07-24T00:27:28.974Z,100747.34
2023-07-24T00:29:55.714Z,100734.99
2023-07-24T00:32:22.493Z,100736.63
2023-07-24T00:34:49.498Z,100736.96
2023-07-24T00:37:16.559Z,100733.02
2023-07-24T00:39:43.286Z,100733.55
2023-07-24T00:42:10.047Z,100731.59
2023-07-24T00:44:37.693Z,100729.77
2023-07-24T00:47:05.849Z,100727.39
2023-07-24T00:49:32.777Z,100724.77
2023-07-24T00:51:59.666Z,100725.54
2023-07-24T00:54:31.733Z,100721.98
2023-07-24T00:56:58.399Z,100715.70
2023-07-24T00:59:25.138Z,100718.30
2023-07-24T01:01:52.640Z,100712.41
2023-07-24T01:04:20.705Z,100711.41
2023-07-24T01:06:47.841Z,100711.71
2023-07-24T01:09:14.739Z,100711.81
2023-07-24T01:12:25.106Z,100710.17
2023-07-24T01:14:59.546Z,100707.40
2023-07-24T01:17:30.295Z,100709.75
2023-07-24T01:20:00.208Z,100710.58
2023-07-24T01:22:30.185Z,100712.52
2023-07-24T01:25:30.497Z,100712.52
2023-07-24T01:27:57.291Z,100708.89
2023-07-24T01:30:24.114Z,100707.46
2023-07-24T01:32:51.049Z,100702.41
2023-07-24T01:35:18.396Z,100699.13
2023-07-24T01:37:48.113Z,100699.48
2023-07-24T01:40:16.231Z,100699.48
2023-07-24T01:42:43.618Z,100698.94
2023-07-24T01:45:12.602Z,100696.91
2023-07-24T01:47:40.005Z,100697.91
2023-07-24T01:50:07.532Z,100694.15
2023-07-24T01:52:34.442Z,100687.52
2023-07-24T01:55:01.205Z,100683.42
2023-07-24T01:57:28.029Z,100682.20
2023-07-24T01:59:54.873Z,100688.36
2023-07-24T02:02:21.928Z,100684.28
2023-07-24T02:04:48.710Z,100684.19
2023-07-24T02:07:15.489Z,100684.38
2023-07-24T02:09:42.241Z,100688.39
2023-07-24T02:12:09.126Z,100693.18
2023-07-24T02:14:35.945Z,100700.10
2023-07-24T02:17:02.658Z,100699.06
2023-07-24T02:19:29.453Z,100695.29
2023-07-24T02:21:56.179Z,100686.59
2023-07-24T02:24:23.000Z,100684.30
2023-07-24T02:26:50.757Z,100685.12
2023-07-24T02:29:17.528Z,100679.90
2023-07-24T02:31:44.299Z,100683.17
2023-07-24T02:34:11.067Z,100675.34
2023-07-24T02:36:42.537Z,100659.95
2023-07-24T02:39:09.846Z,100648.65
2023-07-24T02:41:36.662Z,100640.14
2023-07-24T02:44:05.136Z,100637.47
2023-07-24T02:46:32.615Z,100630.04
2023-07-24T02:49:00.084Z,100630.11
2023-07-24T02:51:26.897Z,100619.63
2023-07-24T02:53:55.604Z,100611.87
2023-07-24T02:56:23.182Z,100605.98
2023-07-24T02:58:50.313Z,100597.61
2023-07-24T03:01:17.260Z,100601.83
2023-07-24T03:03:44.223Z,100603.17
2023-07-24T03:06:11.012Z,100595.17
2023-07-24T03:08:37.734Z,100592.44
2023-07-24T03:11:08.563Z,100590.58
2023-07-24T03:13:35.370Z,100594.56
2023-07-24T03:16:02.130Z,100591.26
2023-07-24T03:18:28.993Z,100589.78
2023-07-24T03:20:58.261Z,100589.54
2023-07-24T03:23:24.954Z,100583.08
2023-07-24T03:25:51.707Z,100583.06
2023-07-24T03:28:18.442Z,100592.08
2023-07-24T03:30:45.363Z,100599.00
2023-07-24T03:33:13.355Z,100596.88
2023-07-24T03:35:40.519Z,100590.73
2023-07-24T03:38:07.232Z,100593.71
2023-07-24T03:40:34.054Z,100597.39
2023-07-24T03:43:01.009Z,100597.07
2023-07-24T03:45:27.823Z,100598.99
2023-07-24T03:47:54.692Z,100607.55
2023-07-24T03:50:21.465Z,100616.77
2023-07-24T03:52:48.308Z,100621.90
2023-07-24T03:55:15.149Z,100618.35
2023-07-24T03:57:41.900Z,100628.85
2023-07-24T04:00:09.341Z,100637.21
2023-07-24T04:02:42.046Z,100637.11
2023-07-24T04:05:09.121Z,100634.89
2023-07-24T04:07:36.005Z,100639.23
2023-07-24T04:10:02.987Z,100642.19
2023-07-24T04:12:30.796Z,100650.66
2023-07-24T04:14:57.607Z,100649.02
2023-07-24T04:17:24.619Z,100634.02
2023-07-24T04:19:51.580Z,100631.62
2023-07-24T04:22:18.351Z,100640.86
2023-07-24T04:24:45.075Z,100642.90
2023-07-24T04:27:11.830Z,100641.77
2023-07-24T04:29:38.652Z,100647.77
2023-07-24T04:32:05.477Z,100655.17
2023-07-24T04:34:34.252Z,100659.08
2023-07-24T04:37:01.094Z,100661.03
2023-07-24T04:39:27.827Z,100661.80
2023-07-24T04:41:54.603Z,100663.98
2023-07-24T04:44:21.364Z,100658.98
2023-07-24T04:46:48.117Z,100662.67
2023-07-24T04:49:14.839Z,100662.73
2023-07-24T04:51:41.664Z,100666.70
2023-07-24T04:54:08.519Z,100675.55
2023-07-24T04:56:35.309Z,100693.35
2023-07-24T04:59:02.051Z,100700.38
2023-07-24T05:01:28.924Z,100706.86
2023-07-24T05:03:55.666Z,100713.07
2023-07-24T05:06:22.866Z,100721.23
2023-07-24T05:08:49.877Z,100731.79
2023-07-24T05:11:16.830Z,100740.12
2023-07-24T05:13:43.569Z,100748.14
2023-07-24T05:16:10.378Z,100757.61
2023-07-24T05:18:39.199Z,100763.29
2023-07-24T05:21:07.453Z,100740.84
2023-07-24T05:23:34.348Z,100691.37
2023-07-24T05:26:03.159Z,100638.80
2023-07-24T05:28:31.924Z,100591.60
2023-07-24T05:31:05.929Z,100562.02
2023-07-24T05:33:33.558Z,100625.67
2023-07-24T05:36:05.006Z,100634.48
2023-07-24T05:38:32.072Z,100638.64
2023-07-24T05:41:03.878Z,100633.27
2023-07-24T05:43:32.312Z,100627.80
2023-07-24T05:45:59.715Z,100630.52
2023-07-24T05:48:26.649Z,100621.16
2023-07-24T05:50:53.810Z,100614.02
2023-07-24T05:53:20.750Z,100619.42
2023-07-24T05:55:47.495Z,100640.98
2023-07-24T05:58:14.313Z,100661.40
2023-07-24T06:00:40.978Z,100664.96
2023-07-24T06:03:08.965Z,100661.15
2023-07-24T06:05:36.267Z,100649.46
2023-07-24T06:08:03.168Z,100615.80
2023-07-24T06:10:30.099Z,100592.90
2023-07-24T06:12:57.075Z,100588.42
2023-07-24T06:15:24.000Z,100571.14
2023-07-24T06:17:53.570Z,100553.98
2023-07-24T06:20:21.975Z,100539.52
2023-07-24T06:22:48.965Z,100536.13
2023-07-24T06:25:15.836Z,100522.52
2023-07-24T06:27:42.582Z,100520.59
2023-07-24T06:30:15.812Z,100526.45
2023-07-24T06:32:44.586Z,100540.45
2023-07-24T06:35:11.485Z,100552.05
2023-07-24T06:37:38.325Z,100543.66
2023-07-24T06:40:06.295Z,100527.20
2023-07-24T06:42:33.245Z,100535.65
2023-07-24T06:45:00.277Z,100560.99
2023-07-24T06:47:27.418Z,100580.27
2023-07-24T06:49:54.547Z,100592.63
2023-07-24T06:52:21.789Z,100596.98
2023-07-24T06:54:48.716Z,100591.02
2023-07-24T06:57:15.936Z,100570.13
2023-07-24T06:59:42.840Z,100548.80
2023-07-24T07:02:09.929Z,100551.41
2023-07-24T07:04:36.834Z,100565.80
2023-07-24T07:07:04.137Z,100571.23
2023-07-24T07:09:31.399Z,100566.29
2023-07-24T07:11:58.812Z,100565.68
2023-07-24T07:14:25.936Z,100574.83
2023-07-24T07:16:52.672Z,100579.06
2023-07-24T07:19:19.458Z,100585.89
2023-07-24T07:21:46.144Z,100593.61
2023-07-24T07:24:13.060Z,100596.21
2023-07-24T07:26:39.857Z,100606.48
2023-07-24T07:29:06.742Z,100615.96
2023-07-24T07:31:33.731Z,100612.33
2023-07-24T07:34:00.552Z,100602.77
2023-07-24T07:36:27.737Z,100616.38
2023-07-24T07:38:54.900Z,100622.09
2023-07-24T07:41:21.885Z,100578.17
2023-07-24T07:43:48.700Z,100584.89
2023-07-24T07:46:15.566Z,100587.23
2023-07-24T07:48:42.314Z,100568.34
2023-07-24T07:51:09.133Z,100554.77
2023-07-24T07:53:35.834Z,100550.92
2023-07-24T07:56:02.958Z,100538.54
2023-07-24T07:58:29.833Z,100531.29
2023-07-24T08:00:56.857Z,100513.45
2023-07-24T08:03:24.062Z,100507.17
2023-07-24T08:05:50.925Z,100494.55
2023-07-24T08:08:17.698Z,100480.46
2023-07-24T08:10:44.524Z,100454.27
2023-07-24T08:13:11.633Z,100453.08
2023-07-24T08:15:39.168Z,100452.30
2023-07-24T08:18:06.809Z,100460.16
2023-07-24T08:20:37.490Z,100456.36
2023-07-24T08:23:04.614Z,100441.60
2023-07-24T08:25:31.729Z,100433.95
2023-07-24T08:28:05.238Z,100438.43
2023-07-24T08:30:35.728Z,100446.79
2023-07-24T08:33:02.902Z,100456.34
2023-07-24T08:35:30.239Z,100481.29
2023-07-24T08:37:57.391Z,100509.97
2023-07-24T08:40:24.299Z,100548.73
2023-07-24T08:42:54.439Z,100535.17
2023-07-24T08:45:21.515Z,100508.78
2023-07-24T08:47:49.846Z,100503.21
2023-07-24T08:50:18.409Z,100518.70
2023-07-24T08:52:46.168Z,100535.94
2023-07-24T08:55:13.281Z,100535.62
2023-07-24T08:57:40.036Z,100539.71
2023-07-24T09:00:07.472Z,100541.69
2023-07-24T09:02:36.214Z,100551.29
2023-07-24T09:05:04.626Z,100545.44
2023-07-24T09:07:32.331Z,100543.23
2023-07-24T09:09:59.306Z,100542.84
2023-07-24T09:12:26.075Z,100541.80
2023-07-24T09:15:04.304Z,100539.27
2023-07-24T09:17:31.081Z,100540.75
2023-07-24T09:19:58.978Z,100540.77
2023-07-24T09:22:27.955Z,100549.39
2023-07-24T09:24:57.213Z,100556.77
2023-07-24T09:27:30.128Z,100592.42
2023-07-24T09:29:59.288Z,100619.42
2023-07-24T09:32:27.988Z,100622.87
2023-07-24T09:34:55.705Z,100612.52
2023-07-24T09:37:27.291Z,100623.40
2023-07-24T09:39:54.447Z,100642.34
2023-07-24T09:42:31.883Z,100652.48
2023-07-24T09:44:58.846Z,100665.85
2023-07-24T09:47:32.814Z,100683.51
2023-07-24T09:50:13.039Z,100684.25
2023-07-24T09:52:43.045Z,100679.08
2023-07-24T09:55:32.737Z,100668.34
2023-07-24T09:58:01.690Z,100651.59
2023-07-24T10:00:28.825Z,100626.13
2023-07-24T10:02:56.659Z,100616.40
2023-07-24T10:05:24.228Z,100588.25
2023-07-24T10:07:52.635Z,100566.34
2023-07-24T10:10:19.585Z,100553.79
2023-07-24T10:12:46.749Z,100527.98
2023-07-24T10:15:14.468Z,100495.08
2023-07-24T10:17:43.384Z,100455.70
2023-07-24T10:20:13.058Z,100443.77
2023-07-24T10:22:44.314Z,100431.33
2023-07-24T10:25:11.973Z,100416.45
2023-07-24T10:27:47.507Z,100427.98
2023-07-24T10:30:28.256Z,100437.04
2023-07-24T10:33:08.439Z,100435.73
2023-07-24T10:35:44.413Z,100418.15
2023-07-24T10:38:17.415Z,100424.08
2023-07-24T10:40:47.034Z,100428.98
2023-07-24T10:43:18.696Z,100414.08
2023-07-24T10:45:55.479Z,100407.55
2023-07-24T10:48:27.006Z,100427.95
2023-07-24T10:50:55.128Z,100432.02
2023-07-24T10:53:24.052Z,100415.59
2023-07-24T10:55:52.663Z,100393.89
2023-07-24T10:58:19.500Z,100349.36
2023-07-24T11:00:47.942Z,100289.28
2023-07-24T11:03:15.958Z,100245.27
2023-07-24T11:05:44.376Z,100287.58
2023-07-24T11:08:18.691Z,100352.61
2023-07-24T11:10:57.810Z,100404.19
2023-07-24T11:13:27.096Z,100438.64
2023-07-24T11:15:55.011Z,100462.39
2023-07-24T11:18:23.673Z,100469.95
2023-07-24T11:20:53.056Z,100463.66
2023-07-24T11:23:20.309Z,100457.55
2023-07-24T11:25:47.895Z,100365.31
2023-07-24T11:28:16.093Z,100287.87
2023-07-24T11:30:44.629Z,100309.08
2023-07-24T11:33:16.142Z,100359.90
2023-07-24T11:35:44.702Z,100342.56
2023-07-24T11:38:12.019Z,100350.08
2023-07-24T11:40:42.226Z,100391.37
2023-07-24T11:43:19.829Z,100402.36
2023-07-24T11:45:50.180Z,100400.02
2023-07-24T11:48:17.101Z,100403.08
2023-07-24T11:50:48.774Z,100431.86
2023-07-24T11:53:23.346Z,100470.56
2023-07-24T11:55:52.100Z,100510.02
2023-07-24T11:58:19.471Z,100531.02
2023-07-24T12:00:48.400Z,100519.79
2023-07-24T12:03:20.996Z,100485.63
2023-07-24T12:05:50.427Z,100456.21
2023-07-24T12:08:21.255Z,100429.47
2023-07-24T12:10:47.990Z,100403.52
2023-07-24T12:13:14.670Z,100385.04
2023-07-24T12:15:41.450Z,100359.30
2023-07-24T12:18:08.634Z,100340.65
2023-07-24T12:20:35.929Z,100328.41
2023-07-24T12:23:02.969Z,100318.40
2023-07-24T12:25:29.866Z,100300.90
2023-07-24T12:27:56.577Z,100275.02
2023-07-24T12:30:23.434Z,100248.89
2023-07-24T12:32:50.342Z,100233.48
2023-07-24T12:35:18.728Z,100220.74
2023-07-24T12:37:46.986Z,100224.77
2023-07-24T12:40:14.690Z,100234.50
2023-07-24T12:42:41.515Z,100241.63
2023-07-24T12:45:08.565Z,100250.48
2023-07-24T12:47:35.316Z,100259.57
2023-07-24T12:50:02.476Z,100274.41
2023-07-24T12:52:30.513Z,100280.09
2023-07-24T12:55:02.328Z,100271.61
2023-07-24T12:57:30.141Z,100241.70
2023-07-24T12:59:56.905Z,100218.58
2023-07-24T13:02:23.759Z,100211.06
2023-07-24T13:04:50.426Z,100202.31
2023-07-24T13:07:17.377Z,100185.30
2023-07-24T13:09:45.532Z,100176.97
2023-07-24T13:12:12.262Z,100176.51
2023-07-24T13:14:41.181Z,100202.63
2023-07-24T13:17:12.139Z,100233.22
2023-07-24T13:19:39.021Z,100287.69
2023-07-24T13:22:06.165Z,100329.79
2023-07-24T13:24:33.492Z,100401.13
2023-07-24T13:27:00.302Z,100476.86
2023-07-24T13:29:27.088Z,100532.29
2023-07-24T13:31:54.113Z,100560.95
2023-07-24T13:34:21.469Z,100566.98
2023-07-24T13:36:48.684Z,100558.36
2023-07-24T13:39:15.635Z,100545.00
2023-07-24T13:41:43.062Z,100525.63
2023-07-24T13:44:11.405Z,100502.27
2023-07-24T13:46:40.424Z,100479.52
2023-07-24T13:49:08.618Z,100466.26
2023-07-24T13:51:35.505Z,100450.56
2023-07-24T13:54:03.529Z,100433.85
2023-07-24T13:56:32.404Z,100430.61
2023-07-24T13:58:59.465Z,100428.48
2023-07-24T14:01:26.623Z,100412.93
2023-07-24T14:03:53.859Z,100391.27
2023-07-24T14:06:20.826Z,100360.60
2023-07-24T14:08:47.577Z,100344.70
2023-07-24T14:11:14.419Z,100327.84
2023-07-24T14:13:41.163Z,100332.09
2023-07-24T14:16:07.963Z,100342.36
2023-07-24T14:18:34.761Z,100330.03
2023-07-24T14:21:02.110Z,100309.11
2023-07-24T14:23:28.881Z,100285.40
2023-07-24T14:25:55.537Z,100253.62
2023-07-24T14:28:22.183Z,100224.70
2023-07-24T14:30:48.865Z,100216.57
2023-07-24T14:33:15.644Z,100213.90
2023-07-24T14:35:42.364Z,100222.32
2023-07-24T14:38:09.086Z,100211.11
2023-07-24T14:40:35.839Z,100208.08
2023-07-24T14:43:05.575Z,100207.27
2023-07-24T14:45:34.598Z,100206.44
2023-07-24T14:48:01.420Z,100211.84
2023-07-24T14:50:28.302Z,100210.50
2023-07-24T14:52:55.032Z,100199.98
2023-07-24T14:55:21.895Z,100190.53
2023-07-24T14:57:49.010Z,100178.21
2023-07-24T15:00:17.484Z,100179.64
2023-07-24T15:02:44.845Z,100184.51
2023-07-24T15:05:11.966Z,100192.38
2023-07-24T15:07:39.137Z,100192.13
2023-07-24T15:10:06.974Z,100188.33
2023-07-24T15:12:33.832Z,100167.45
2023-07-24T15:15:00.751Z,100154.80
2023-07-24T15:17:27.717Z,100149.91
2023-07-24T15:19:54.858Z,100146.10
2023-07-24T15:22:21.582Z,100143.02
2023-07-24T15:24:48.461Z,100138.28
2023-07-24T15:27:15.600Z,100142.47
2023-07-24T15:29:42.342Z,100141.46
2023-07-24T15:32:09.287Z,100145.25
2023-07-24T15:34:39.357Z,100139.79
2023-07-24T15:37:07.135Z,100141.17
2023-07-24T15:39:33.863Z,100147.94
2023-07-24T15:42:00.610Z,100143.92
2023-07-24T15:44:27.313Z,100147.13
2023-07-24T15:46:54.057Z,100151.88
2023-07-24T15:49:20.853Z,100154.07
2023-07-24T15:51:47.667Z,100153.77
2023-07-24T15:54:14.355Z,100147.52
2023-07-24T15:56:41.388Z,100139.23
2023-07-24T15:59:10.164Z,100135.81
2023-07-24T16:01:36.874Z,100139.25
2023-07-24T16:04:03.648Z,100128.69
2023-07-24T16:06:30.596Z,100122.04
2023-07-24T16:08:57.362Z,100107.89
2023-07-24T16:11:24.317Z,100098.12
2023-07-24T16:13:51.029Z,100079.52
2023-07-24T16:16:17.761Z,100061.91
2023-07-24T16:18:44.880Z,100060.72
2023-07-24T16:21:11.549Z,100058.40
2023-07-24T16:23:38.422Z,100048.95
2023-07-24T16:26:05.216Z,100032.70
2023-07-24T16:28:31.980Z,100024.02
2023-07-24T16:30:59.182Z,100011.00
2023-07-24T16:33:26.439Z,100006.80
2023-07-24T16:35:53.474Z,100003.41
2023-07-24T16:38:20.277Z,99997.84
2023-07-24T16:40:47.000Z,99978.46
2023-07-24T16:43:13.683Z,99960.06
2023-07-24T16:45:40.384Z,99954.44
2023-07-24T16:48:07.360Z,99947.92
2023-07-24T16:50:36.620Z,99946.89
2023-07-24T16:53:04.744Z,99954.27
2023-07-24T16:55:31.554Z,99961.69
2023-07-24T16:57:58.313Z,99963.30
2023-07-24T17:00:25.084Z,99967.53
2023-07-24T17:02:52.055Z,99981.02
2023-07-24T17:05:19.056Z,99983.92
2023-07-24T17:07:45.992Z,99985.55
2023-07-24T17:10:12.937Z,99995.73
2023-07-24T17:12:39.672Z,100003.16
2023-07-24T17:15:07.956Z,100007.17
2023-07-24T17:17:34.732Z,100006.30
2023-07-24T17:20:01.409Z,100005.40
2023-07-24T17:22:28.098Z,100010.67
2023-07-24T17:24:54.899Z,100020.42
2023-07-24T17:27:23.076Z,100017.83
2023-07-24T17:29:49.940Z,100011.36
2023-07-24T17:32:20.273Z,100009.85
2023-07-24T17:34:46.978Z,100006.23
2023-07-24T17:37:21.235Z,100004.21
2023-07-24T17:39:55.519Z,100006.65
2023-07-24T17:42:22.360Z,100006.23
2023-07-24T17:44:49.225Z,100004.23
2023-07-24T17:47:16.037Z,100008.17
2023-07-24T17:49:47.610Z,100013.16
2023-07-24T17:52:25.122Z,100004.31
2023-07-24T17:54:51.781Z,100002.27
2023-07-24T17:57:18.547Z,99990.01
2023-07-24T17:59:45.357Z,99991.25
2023-07-24T18:02:12.362Z,100001.86
2023-07-24T18:04:39.498Z,100007.09
2023-07-24T18:07:06.351Z,100000.28
2023-07-24T18:09:33.093Z,99990.15
2023-07-24T18:11:59.844Z,99981.18
2023-07-24T18:14:26.539Z,99971.40
2023-07-24T18:16:53.291Z,99971.21
2023-07-24T18:19:20.099Z,99970.21
2023-07-24T18:21:46.849Z,99960.42
2023-07-24T18:24:13.881Z,99959.29
2023-07-24T18:26:40.890Z,99962.56
2023-07-24T18:29:07.543Z,99962.16
2023-07-24T18:31:34.749Z,99955.98
2023-07-24T18:34:01.601Z,99949.92
2023-07-24T18:36:28.329Z,99941.77
2023-07-24T18:38:55.226Z,99943.64
2023-07-24T18:41:21.891Z,99937.37
2023-07-24T18:43:48.825Z,99931.86
2023-07-24T18:46:18.033Z,99929.70
2023-07-24T18:48:44.875Z,99927.01
2023-07-24T18:51:12.031Z,99916.46
2023-07-24T18:53:38.752Z,99900.70
2023-07-24T18:56:05.905Z,99885.88
2023-07-24T18:58:32.551Z,99870.73
2023-07-24T19:00:59.285Z,99862.32
2023-07-24T19:03:26.623Z,99860.34
2023-07-24T19:05:54.193Z,99853.61
2023-07-24T19:08:21.218Z,99846.74
2023-07-24T19:10:47.902Z,99848.05
2023-07-24T19:13:14.585Z,99844.77
2023-07-24T19:15:41.249Z,99850.23
2023-07-24T19:18:07.955Z,99859.60
2023-07-24T19:20:34.673Z,99866.21
2023-07-24T19:23:03.671Z,99872.17
2023-07-24T19:25:31.677Z,99872.30
2023-07-24T19:27:58.749Z,99873.10
2023-07-24T19:30:25.530Z,99865.40
2023-07-24T19:32:52.528Z,99865.21
2023-07-24T19:35:20.697Z,99868.65
2023-07-24T19:37:47.646Z,99874.31
2023-07-24T19:40:14.500Z,99876.34
2023-07-24T19:42:41.145Z,99876.96
2023-07-24T19:45:08.497Z,99874.05
2023-07-24T19:47:35.275Z,99879.52
2023-07-24T19:50:04.365Z,99893.35
2023-07-24T19:52:32.690Z,99906.79
2023-07-24T19:54:59.479Z,99901.55
2023-07-24T19:57:26.589Z,99891.57
2023-07-24T19:59:53.529Z,99882.80
2023-07-24T20:02:20.179Z,99875.03
2023-07-24T20:04:46.851Z,99881.77
2023-07-24T20:07:13.896Z,99882.52
2023-07-24T20:09:40.581Z,99890.67
2023-07-24T20:12:08.055Z,99893.29
2023-07-24T20:14:35.305Z,99910.19
2023-07-24T20:17:02.231Z,99915.67
2023-07-24T20:19:29.029Z,99909.64
2023-07-24T20:21:55.733Z,99896.92
2023-07-24T20:24:22.712Z,99880.27
2023-07-24T20:26:49.430Z,99862.71
2023-07-24T20:29:16.081Z,99852.85
2023-07-24T20:31:42.971Z,99842.55
2023-07-24T20:34:10.696Z,99845.60
2023-07-24T20:36:37.463Z,99828.95
2023-07-24T20:39:04.227Z,99810.58
2023-07-24T20:41:31.175Z,99787.04
2023-07-24T20:43:58.180Z,99768.17
2023-07-24T20:46:25.001Z,99786.46
2023-07-24T20:48:51.721Z,99748.73
2023-07-24T20:51:24.303Z,99692.84
2023-07-24T20:53:52.351Z,99682.02
2023-07-24T20:56:22.650Z,99632.61
2023-07-24T20:58:49.463Z,99582.27
2023-07-24T21:01:16.295Z,99613.98
2023-07-24T21:03:43.640Z,99937.04
2023-07-24T21:06:10.423Z,100029.92
2023-07-24T21:08:37.349Z,100092.85
2023-07-24T21:11:04.076Z,100058.13
2023-07-24T21:13:30.800Z,100009.42
2023-07-24T21:15:57.448Z,100045.58
2023-07-24T21:18:24.319Z,100075.90
2023-07-24T21:20:51.020Z,100016.93
2023-07-24T21:23:17.858Z,99997.08
2023-07-24T21:25:55.427Z,99999.38
2023-07-24T21:28:23.375Z,100000.48
2023-07-24T21:30:50.393Z,100003.81
2023-07-24T21:33:18.313Z,100002.26
2023-07-24T21:35:45.049Z,99992.75
2023-07-24T21:38:13.305Z,99992.86
2023-07-24T21:40:41.138Z,99985.58
2023-07-24T21:43:08.859Z,99976.58
2023-07-24T21:45:35.952Z,99961.33
2023-07-24T21:48:05.983Z,99954.48
2023-07-24T21:50:33.182Z,99947.38
2023-07-24T21:53:00.500Z,99929.38
2023-07-24T21:55:27.329Z,99915.88
2023-07-24T21:57:56.133Z,99920.69
2023-07-24T22:00:23.055Z,99911.16
2023-07-24T22:02:49.816Z,99901.75
2023-07-24T22:05:16.886Z,99916.14
2023-07-24T22:07:44.115Z,99926.27
2023-07-24T22:10:11.060Z,99922.34
2023-07-24T22:12:37.805Z,99914.94
2023-07-24T22:15:04.920Z,99902.48
2023-07-24T22:17:32.102Z,99893.27
2023-07-24T22:19:58.845Z,99900.30
2023-07-24T22:22:25.668Z,99903.54
2023-07-24T22:24:52.524Z,99904.52
2023-07-24T22:27:19.564Z,99893.64
2023-07-24T22:29:46.407Z,99895.73
2023-07-24T22:32:13.345Z,99901.96
2023-07-24T22:34:40.056Z,99899.14
2023-07-24T22:37:08.013Z,99894.36
2023-07-24T22:39:35.938Z,99882.87
2023-07-24T22:42:02.718Z,99873.10
2023-07-24T22:44:29.684Z,99876.31
2023-07-24T22:46:56.903Z,99875.89
2023-07-24T22:49:24.324Z,99874.93
2023-07-24T22:51:51.164Z,99865.92
2023-07-24T22:54:17.861Z,99861.20
2023-07-24T22:56:44.980Z,99865.09
2023-07-24T22:59:28.706Z,99861.55
2023-07-24T23:01:58.221Z,99860.49
2023-07-24T23:04:26.438Z,99857.71
2023-07-24T23:06:55.657Z,99856.61
2023-07-24T23:09:23.481Z,99859.20
2023-07-24T23:11:50.604Z,99864.90
2023-07-24T23:14:17.370Z,99864.55
2023-07-24T23:16:44.321Z,99864.43
2023-07-24T23:19:11.140Z,99863.42
2023-07-24T23:21:37.981Z,99858.90
2023-07-24T23:24:05.379Z,99864.77
2023-07-24T23:26:32.271Z,99866.39
2023-07-24T23:28:59.754Z,99864.13
2023-07-24T23:31:26.534Z,99862.41
2023-07-24T23:33:53.348Z,99862.45
2023-07-24T23:36:20.098Z,99848.45
2023-07-24T23:38:47.024Z,99845.67
2023-07-24T23:41:14.109Z,99843.10
2023-07-24T23:43:40.928Z,99840.78
2023-07-24T23:46:15.782Z,99841.63
2023-07-24T23:48:43.935Z,99824.46
2023-07-24T23:51:15.859Z,99819.91
2023-07-24T23:53:43.447Z,99812.91
2023-07-24T23:56:10.563Z,99815.30
2023-07-24T23:58:37.336Z,99804.16
